createdAt,value
2022-10-13T00:01:37.645Z,101253.25
2022-10-13T00:04:05.267Z,101248.69
2022-10-13T00:06:32.752Z,101255.88
2022-10-13T00:09:01.304Z,101256.28
2022-10-13T00:11:30.354Z,101259.19
2022-10-13T00:14:00.435Z,101257.69
2022-10-13T00:16:28.798Z,101259.16
2022-10-13T00:18:58.051Z,101258.69
2022-10-13T00:21:27.757Z,101256.88
2022-10-13T00:23:55.839Z,101258.28
2022-10-13T00:26:25.249Z,101264.38
2022-10-13T00:28:53.354Z,101256.94
2022-10-13T00:31:22.478Z,101255.75
2022-10-13T00:33:50.149Z,101255.44
2022-10-13T00:36:18.999Z,101254.44
2022-10-13T00:38:46.560Z,101262.50
2022-10-13T00:41:14.495Z,101257.66
2022-10-13T00:43:58.088Z,101266.91
2022-10-13T00:46:26.771Z,101259.66
2022-10-13T00:48:55.078Z,101262.25
2022-10-13T00:51:25.667Z,101267.97
2022-10-13T00:53:54.206Z,101261.31
2022-10-13T00:56:22.671Z,101263.22
2022-10-13T00:58:50.888Z,101252.50
2022-10-13T01:01:18.437Z,101252.63
2022-10-13T01:03:45.891Z,101259.50
2022-10-13T01:06:14.225Z,101262.31
2022-10-13T01:08:43.189Z,101248.53
2022-10-13T01:11:23.545Z,101252.44
2022-10-13T01:13:55.024Z,101255.41
2022-10-13T01:16:29.512Z,101258.66
2022-10-13T01:19:02.456Z,101255.31
2022-10-13T01:21:34.046Z,101258.25
2022-10-13T01:24:29.803Z,101251.53
2022-10-13T01:27:15.639Z,101254.75
2022-10-13T01:30:05.230Z,101252.47
2022-10-13T01:32:37.655Z,101246.22
2022-10-13T01:35:09.378Z,101243.47
2022-10-13T01:37:44.290Z,101237.47
2022-10-13T01:40:16.493Z,101245.69
2022-10-13T01:42:47.948Z,101244.84
2022-10-13T01:45:19.143Z,101252.97
2022-10-13T01:47:48.039Z,101244.84
2022-10-13T01:50:17.124Z,101240.03
2022-10-13T01:52:45.037Z,101237.53
2022-10-13T01:55:14.079Z,101232.63
2022-10-13T01:57:42.765Z,101241.84
2022-10-13T02:00:12.481Z,101237.78
2022-10-13T02:02:45.988Z,101238.19
2022-10-13T02:05:19.263Z,101238.69
2022-10-13T02:07:48.536Z,101238.06
2022-10-13T02:10:21.103Z,101235.41
2022-10-13T02:12:51.238Z,101229.50
2022-10-13T02:15:22.024Z,101228.28
2022-10-13T02:17:51.905Z,101220.47
2022-10-13T02:20:20.677Z,101224.09
2022-10-13T02:22:52.015Z,101215.19
2022-10-13T02:25:19.467Z,101212.34
2022-10-13T02:27:46.983Z,101205.59
2022-10-13T02:30:22.346Z,101206.06
2022-10-13T02:32:51.170Z,101201.78
2022-10-13T02:35:18.658Z,101207.53
2022-10-13T02:37:46.111Z,101211.03
2022-10-13T02:40:13.819Z,101213.69
2022-10-13T02:42:41.375Z,101216.88
2022-10-13T02:45:10.301Z,101218.09
2022-10-13T02:47:38.063Z,101210.38
2022-10-13T02:50:07.940Z,101210.69
2022-10-13T02:52:35.447Z,101209.69
2022-10-13T02:55:03.164Z,101207.91
2022-10-13T02:57:30.634Z,101215.16
2022-10-13T02:59:58.110Z,101201.91
2022-10-13T03:02:26.998Z,101210.00
2022-10-13T03:04:54.530Z,101210.72
2022-10-13T03:07:23.399Z,101212.50
2022-10-13T03:09:50.866Z,101204.25
2022-10-13T03:12:18.724Z,101205.41
2022-10-13T03:14:46.503Z,101202.34
2022-10-13T03:17:14.000Z,101199.50
2022-10-13T03:19:41.695Z,101190.31
2022-10-13T03:22:09.194Z,101197.00
2022-10-13T03:24:38.005Z,101197.81
2022-10-13T03:27:05.465Z,101198.94
2022-10-13T03:29:33.743Z,101197.28
2022-10-13T03:32:01.229Z,101190.09
2022-10-13T03:34:28.711Z,101190.59
2022-10-13T03:36:56.197Z,101187.91
2022-10-13T03:39:23.705Z,101185.84
2022-10-13T03:41:52.539Z,101176.31
2022-10-13T03:44:20.260Z,101185.84
2022-10-13T03:46:47.783Z,101192.09
2022-10-13T03:49:15.216Z,101194.38
2022-10-13T03:51:42.684Z,101190.56
2022-10-13T03:54:11.838Z,101191.78
2022-10-13T03:56:40.116Z,101199.59
2022-10-13T03:59:16.671Z,101194.78
2022-10-13T04:01:44.338Z,101191.38
2022-10-13T04:04:12.846Z,101188.25
2022-10-13T04:06:40.430Z,101197.50
2022-10-13T04:09:07.938Z,101202.91
2022-10-13T04:11:35.429Z,101198.22
2022-10-13T04:14:02.900Z,101192.31
2022-10-13T04:16:32.425Z,101196.16
2022-10-13T04:19:01.662Z,101198.13
2022-10-13T04:21:29.931Z,101202.66
2022-10-13T04:23:58.130Z,101196.84
2022-10-13T04:26:27.397Z,101205.84
2022-10-13T04:28:56.125Z,101205.00
2022-10-13T04:31:24.493Z,101209.19
2022-10-13T04:33:54.299Z,101210.09
2022-10-13T04:36:24.074Z,101207.81
2022-10-13T04:38:51.589Z,101207.91
2022-10-13T04:41:20.213Z,101207.66
2022-10-13T04:43:48.653Z,101205.16
2022-10-13T04:46:18.832Z,101205.91
2022-10-13T04:48:46.758Z,101206.91
2022-10-13T04:51:17.731Z,101199.94
2022-10-13T04:53:45.646Z,101197.16
2022-10-13T04:56:15.216Z,101195.75
2022-10-13T04:58:44.040Z,101192.22
2022-10-13T05:01:17.635Z,101188.66
2022-10-13T05:03:48.979Z,101184.97
2022-10-13T05:06:19.486Z,101177.16
2022-10-13T05:08:46.939Z,101173.75
2022-10-13T05:11:14.437Z,101177.97
2022-10-13T05:13:41.877Z,101181.47
2022-10-13T05:16:10.896Z,101172.09
2022-10-13T05:18:38.719Z,101167.59
2022-10-13T05:21:10.249Z,101173.16
2022-10-13T05:23:39.199Z,101159.44
2022-10-13T05:26:09.105Z,101160.34
2022-10-13T05:28:36.826Z,101166.84
2022-10-13T05:31:12.232Z,101167.16
2022-10-13T05:33:39.746Z,101167.84
2022-10-13T05:36:08.693Z,101170.19
2022-10-13T05:38:36.140Z,101159.34
2022-10-13T05:41:06.060Z,101170.56
2022-10-13T05:43:33.922Z,101160.69
2022-10-13T05:46:01.479Z,101153.16
2022-10-13T05:48:29.413Z,101154.91
2022-10-13T05:50:58.933Z,101145.97
2022-10-13T05:53:29.207Z,101141.34
2022-10-13T05:55:58.238Z,101154.84
2022-10-13T05:58:27.108Z,101139.72
2022-10-13T06:00:55.209Z,101137.81
2022-10-13T06:03:24.345Z,101138.69
2022-10-13T06:05:51.845Z,101139.22
2022-10-13T06:08:19.386Z,101144.59
2022-10-13T06:10:46.926Z,101151.91
2022-10-13T06:13:14.396Z,101143.63
2022-10-13T06:15:43.183Z,101143.91
2022-10-13T06:18:11.060Z,101153.50
2022-10-13T06:20:38.564Z,101152.84
2022-10-13T06:23:06.135Z,101153.81
2022-10-13T06:25:33.616Z,101160.50
2022-10-13T06:28:01.119Z,101163.22
2022-10-13T06:30:28.665Z,101163.72
2022-10-13T06:32:57.511Z,101161.69
2022-10-13T06:35:24.950Z,101163.53
2022-10-13T06:37:53.100Z,101155.47
2022-10-13T06:40:20.578Z,101156.31
2022-10-13T06:42:51.683Z,101152.00
2022-10-13T06:45:19.530Z,101154.50
2022-10-13T06:47:47.101Z,101160.47
2022-10-13T06:50:16.029Z,101158.34
2022-10-13T06:52:43.943Z,101165.53
2022-10-13T06:55:11.395Z,101152.78
2022-10-13T06:57:38.858Z,101165.25
2022-10-13T07:00:08.200Z,101168.91
2022-10-13T07:02:35.686Z,101163.28
2022-10-13T07:05:03.159Z,101156.28
2022-10-13T07:07:31.974Z,101157.94
2022-10-13T07:09:59.624Z,101174.56
2022-10-13T07:12:27.128Z,101171.25
2022-10-13T07:14:54.561Z,101171.75
2022-10-13T07:17:22.529Z,101159.63
2022-10-13T07:19:50.455Z,101158.78
2022-10-13T07:22:17.985Z,101156.09
2022-10-13T07:24:46.758Z,101151.81
2022-10-13T07:27:14.310Z,101150.81
2022-10-13T07:29:41.743Z,101141.97
2022-10-13T07:32:09.193Z,101138.16
2022-10-13T07:34:36.795Z,101140.31
2022-10-13T07:37:04.277Z,101153.78
2022-10-13T07:39:31.986Z,101154.63
2022-10-13T07:42:00.811Z,101146.97
2022-10-13T07:44:28.306Z,101143.97
2022-10-13T07:46:55.769Z,101150.31
2022-10-13T07:49:23.964Z,101144.78
2022-10-13T07:51:51.421Z,101154.94
2022-10-13T07:54:22.534Z,101145.66
2022-10-13T07:56:52.617Z,101154.13
2022-10-13T07:59:22.082Z,101151.97
2022-10-13T08:01:49.738Z,101154.28
2022-10-13T08:04:17.246Z,101156.28
2022-10-13T08:06:44.968Z,101151.47
2022-10-13T08:09:12.485Z,101156.63
2022-10-13T08:11:40.029Z,101159.63
2022-10-13T08:14:07.509Z,101145.78
2022-10-13T08:16:36.320Z,101154.59
2022-10-13T08:19:03.790Z,101149.00
2022-10-13T08:24:19.321Z,101158.16
2022-10-13T08:26:47.670Z,101152.31
2022-10-13T08:29:24.067Z,101149.09
2022-10-13T08:31:54.054Z,101147.03
2022-10-13T08:34:22.044Z,101145.38
2022-10-13T08:36:52.704Z,101146.09
2022-10-13T08:39:20.191Z,101138.59
2022-10-13T08:41:47.698Z,101125.03
2022-10-13T08:45:02.636Z,101116.53
2022-10-13T08:47:17.110Z,101122.84
2022-10-13T08:49:46.118Z,101128.47
2022-10-13T08:52:19.026Z,101132.47
2022-10-13T08:54:47.009Z,101129.38
2022-10-13T08:57:14.726Z,101132.94
2022-10-13T08:59:42.296Z,101143.03
2022-10-13T09:02:16.624Z,101145.97
2022-10-13T09:04:49.310Z,101143.44
2022-10-13T09:07:19.421Z,101135.00
2022-10-13T09:09:51.686Z,101135.19
2022-10-13T09:12:22.155Z,101132.19
2022-10-13T09:14:59.178Z,101134.22
2022-10-13T09:17:28.659Z,101136.06
2022-10-13T09:20:01.878Z,101133.97
2022-10-13T09:22:31.176Z,101150.13
2022-10-13T09:25:19.089Z,101140.81
2022-10-13T09:27:48.485Z,101131.78
2022-10-13T09:30:26.453Z,101145.50
2022-10-13T09:33:07.140Z,101146.00
2022-10-13T09:35:35.004Z,101148.56
2022-10-13T09:38:04.102Z,101149.69
2022-10-13T09:40:32.321Z,101151.31
2022-10-13T09:43:01.432Z,101133.28
2022-10-13T09:45:30.370Z,101129.84
2022-10-13T09:48:02.604Z,101128.09
2022-10-13T09:50:31.834Z,101126.13
2022-10-13T09:53:12.941Z,101124.59
2022-10-13T09:55:40.421Z,101129.38
2022-10-13T09:58:11.695Z,101132.00
2022-10-13T10:00:39.535Z,101123.34
2022-10-13T10:03:14.378Z,101131.09
2022-10-13T10:05:46.336Z,101126.97
2022-10-13T10:08:16.987Z,101144.66
2022-10-13T10:10:44.797Z,101134.13
2022-10-13T10:13:13.363Z,101128.06
2022-10-13T10:15:49.540Z,101131.09
2022-10-13T10:18:22.216Z,101118.66
2022-10-13T10:20:56.061Z,101130.53
2022-10-13T10:23:31.008Z,101126.56
2022-10-13T10:26:01.090Z,101114.41
2022-10-13T10:28:45.453Z,101114.78
2022-10-13T10:31:22.070Z,101104.50
2022-10-13T10:34:00.430Z,101094.44
2022-10-13T10:36:35.691Z,101111.66
2022-10-13T10:39:08.148Z,101096.47
2022-10-13T10:41:41.631Z,101086.97
2022-10-13T10:44:10.079Z,101089.16
2022-10-13T10:46:40.626Z,101094.47
2022-10-13T10:49:15.442Z,101088.97
2022-10-13T10:51:43.338Z,101085.72
2022-10-13T10:54:20.740Z,101089.09
2022-10-13T10:56:50.586Z,101082.50
2022-10-13T10:59:27.736Z,101077.13
2022-10-13T11:02:03.836Z,101066.00
2022-10-13T11:04:41.199Z,101061.47
2022-10-13T11:07:15.132Z,101074.03
2022-10-13T11:10:02.227Z,101060.72
2022-10-13T11:12:48.291Z,101057.97
2022-10-13T11:15:21.025Z,101057.28
2022-10-13T11:17:48.562Z,101049.19
2022-10-13T11:20:55.282Z,101038.19
2022-10-13T11:23:33.340Z,101037.19
2022-10-13T11:26:20.853Z,101029.75
2022-10-13T11:28:48.886Z,101021.66
2022-10-13T11:31:33.556Z,101016.50
2022-10-13T11:34:03.844Z,101012.06
2022-10-13T11:36:55.283Z,101006.53
2022-10-13T11:39:46.815Z,101003.91
2022-10-13T11:42:24.041Z,100991.41
2022-10-13T11:44:55.413Z,100994.97
2022-10-13T11:47:39.870Z,100988.31
2022-10-13T11:50:17.936Z,100978.31
2022-10-13T11:52:59.033Z,100990.72
2022-10-13T11:55:34.313Z,100978.38
2022-10-13T11:58:09.503Z,100971.72
2022-10-13T12:00:37.013Z,100972.97
2022-10-13T12:03:04.659Z,100983.41
2022-10-13T12:05:32.716Z,100979.94
2022-10-13T12:08:04.676Z,100977.00
2022-10-13T12:10:34.245Z,100970.47
2022-10-13T12:13:02.110Z,100985.06
2022-10-13T12:15:33.729Z,100982.84
2022-10-13T12:18:01.214Z,100978.50
2022-10-13T12:20:30.427Z,100979.13
2022-10-13T12:22:58.227Z,100969.03
2022-10-13T12:25:29.244Z,100970.88
2022-10-13T12:27:58.979Z,100975.72
2022-10-13T12:30:28.628Z,100980.25
2022-10-13T12:32:57.420Z,100968.13
2022-10-13T12:35:26.181Z,100972.09
2022-10-13T12:37:54.835Z,100964.97
2022-10-13T12:40:23.229Z,100951.56
2022-10-13T12:42:52.394Z,100957.31
2022-10-13T12:45:21.755Z,100956.06
2022-10-13T12:47:51.687Z,100944.91
2022-10-13T12:50:38.027Z,100953.56
2022-10-13T12:53:12.850Z,100948.66
2022-10-13T12:55:49.190Z,100942.38
2022-10-13T12:58:21.568Z,100938.75
2022-10-13T13:01:02.478Z,100941.44
2022-10-13T13:03:30.772Z,100957.06
2022-10-13T13:06:22.328Z,100949.41
2022-10-13T13:09:08.157Z,100944.66
2022-10-13T13:11:37.083Z,100938.50
2022-10-13T13:14:36.323Z,100924.72
2022-10-13T13:17:09.181Z,100930.41
2022-10-13T13:19:37.251Z,100932.94
2022-10-13T13:22:05.566Z,100924.28
2022-10-13T13:24:40.144Z,100916.06
2022-10-13T13:27:20.265Z,100923.09
2022-10-13T13:29:49.743Z,100917.75
2022-10-13T13:32:20.329Z,100921.66
2022-10-13T13:34:48.329Z,100921.06
2022-10-13T13:37:21.869Z,100917.34
2022-10-13T13:39:49.639Z,100912.81
2022-10-13T13:42:17.128Z,100901.69
2022-10-13T13:44:44.639Z,100919.81
2022-10-13T13:47:21.877Z,100926.00
2022-10-13T13:49:50.269Z,100926.19
2022-10-13T13:52:18.267Z,100932.59
2022-10-13T13:54:46.179Z,100921.84
2022-10-13T13:57:14.860Z,100905.75
2022-10-13T13:59:42.545Z,100906.59
2022-10-13T14:02:14.970Z,100904.38
2022-10-13T14:04:44.166Z,100901.47
2022-10-13T14:07:12.140Z,100896.09
2022-10-13T14:09:39.875Z,100895.69
2022-10-13T14:12:07.572Z,100881.44
2022-10-13T14:14:35.042Z,100881.03
2022-10-13T14:17:03.530Z,100886.78
2022-10-13T14:19:31.266Z,100888.88
2022-10-13T14:22:03.725Z,100898.78
2022-10-13T14:24:34.730Z,100903.72
2022-10-13T14:27:02.196Z,100902.50
2022-10-13T14:29:29.689Z,100907.22
2022-10-13T14:31:57.177Z,100902.28
2022-10-13T14:34:25.016Z,100897.53
2022-10-13T14:36:52.659Z,100900.84
2022-10-13T14:39:21.688Z,100899.16
2022-10-13T14:41:49.167Z,100897.13
2022-10-13T14:44:16.813Z,100892.78
2022-10-13T14:46:44.236Z,100895.47
2022-10-13T14:49:11.977Z,100890.53
2022-10-13T14:51:39.463Z,100885.78
2022-10-13T14:54:07.055Z,100898.16
2022-10-13T14:56:36.012Z,100894.03
2022-10-13T14:59:05.482Z,100887.22
2022-10-13T15:01:33.766Z,100889.09
2022-10-13T15:04:01.333Z,100891.34
2022-10-13T15:06:28.918Z,100894.88
2022-10-13T15:08:56.796Z,100893.00
2022-10-13T15:11:25.396Z,100887.41
2022-10-13T15:13:54.605Z,100884.75
2022-10-13T15:16:24.006Z,100885.78
2022-10-13T15:18:52.068Z,100876.50
2022-10-13T15:21:19.956Z,100875.88
2022-10-13T15:23:48.082Z,100876.50
2022-10-13T15:26:17.433Z,100876.06
2022-10-13T15:28:46.543Z,100879.38
2022-10-13T15:31:16.964Z,100877.50
2022-10-13T15:33:46.481Z,100871.56
2022-10-13T15:36:14.470Z,100876.91
2022-10-13T15:38:42.108Z,100869.88
2022-10-13T15:41:11.161Z,100874.22
2022-10-13T15:43:39.455Z,100873.56
2022-10-13T15:46:08.793Z,100881.00
2022-10-13T15:48:38.056Z,100871.06
2022-10-13T15:51:10.395Z,100880.78
2022-10-13T15:53:38.001Z,100880.56
2022-10-13T15:56:05.735Z,100879.97
2022-10-13T15:58:33.378Z,100884.69
2022-10-13T16:01:00.895Z,100880.56
2022-10-13T16:03:29.929Z,100884.09
2022-10-13T16:05:59.149Z,100878.47
2022-10-13T16:08:26.674Z,100872.72
2022-10-13T16:10:54.497Z,100877.22
2022-10-13T16:13:22.088Z,100872.28
2022-10-13T16:15:58.320Z,100876.59
2022-10-13T16:18:30.277Z,100873.41
2022-10-13T16:20:59.466Z,100876.53
2022-10-13T16:23:27.590Z,100872.28
2022-10-13T16:25:55.149Z,100868.09
2022-10-13T16:28:25.920Z,100873.44
2022-10-13T16:30:53.579Z,100886.66
2022-10-13T16:33:21.101Z,100889.09
2022-10-13T16:35:48.739Z,100883.72
2022-10-13T16:38:17.743Z,100884.16
2022-10-13T16:40:45.326Z,100883.13
2022-10-13T16:43:12.868Z,100876.34
2022-10-13T16:45:59.046Z,100873.06
2022-10-13T16:48:27.578Z,100872.22
2022-10-13T16:50:55.106Z,100875.72
2022-10-13T16:53:23.989Z,100871.78
2022-10-13T16:55:51.518Z,100867.66
2022-10-13T16:58:19.019Z,100866.63
2022-10-13T17:00:46.672Z,100866.63
2022-10-13T17:03:14.290Z,100867.84
2022-10-13T17:05:41.978Z,100863.31
2022-10-13T17:08:09.505Z,100867.22
2022-10-13T17:10:38.346Z,100870.72
2022-10-13T17:13:05.820Z,100865.97
2022-10-13T17:15:33.291Z,100866.19
2022-10-13T17:18:00.802Z,100867.19
2022-10-13T17:20:28.248Z,100877.88
2022-10-13T17:22:55.729Z,100870.44
2022-10-13T17:25:23.180Z,100869.06
2022-10-13T17:27:51.972Z,100871.69
2022-10-13T17:30:19.475Z,100869.84
2022-10-13T17:32:46.907Z,100870.84
2022-10-13T17:35:17.888Z,100874.16
2022-10-13T17:37:45.512Z,100875.56
2022-10-13T17:40:13.204Z,100868.56
2022-10-13T17:42:41.667Z,100875.16
2022-10-13T17:45:11.290Z,100871.59
2022-10-13T17:47:38.764Z,100873.25
2022-10-13T17:50:07.463Z,100867.28
2022-10-13T17:52:34.960Z,100868.69
2022-10-13T17:55:02.471Z,100866.63
2022-10-13T17:57:30.703Z,100876.91
2022-10-13T17:59:58.194Z,100869.47
2022-10-13T18:02:27.115Z,100865.78
2022-10-13T18:04:54.581Z,100873.19
2022-10-13T18:07:22.483Z,100873.19
2022-10-13T18:09:51.820Z,100870.53
2022-10-13T18:12:19.442Z,100872.75
2022-10-13T18:14:46.926Z,100860.81
2022-10-13T18:17:14.523Z,100862.25
2022-10-13T18:19:43.779Z,100858.34
2022-10-13T18:22:11.660Z,100856.50
2022-10-13T18:24:39.439Z,100859.19
2022-10-13T18:27:06.989Z,100855.06
2022-10-13T18:29:34.467Z,100857.28
2022-10-13T18:32:02.304Z,100862.03
2022-10-13T18:34:29.901Z,100855.06
2022-10-13T18:36:58.983Z,100863.94
2022-10-13T18:39:27.885Z,100851.81
2022-10-13T18:41:57.183Z,100860.03
2022-10-13T18:44:25.078Z,100859.19
2022-10-13T18:46:56.343Z,100863.28
2022-10-13T18:49:30.810Z,100864.97
2022-10-13T18:52:00.418Z,100865.16
2022-10-13T18:54:29.043Z,100868.25
2022-10-13T18:56:57.020Z,100863.34
2022-10-13T18:59:24.629Z,100859.09
2022-10-13T19:01:52.447Z,100866.63
2022-10-13T19:04:21.511Z,100862.69
2022-10-13T19:06:49.153Z,100865.78
2022-10-13T19:09:18.266Z,100856.13
2022-10-13T19:11:45.882Z,100854.69
2022-10-13T19:14:14.269Z,100865.19
2022-10-13T19:16:43.605Z,100865.00
2022-10-13T19:19:11.539Z,100867.50
2022-10-13T19:21:39.558Z,100864.00
2022-10-13T19:24:07.986Z,100864.53
2022-10-13T19:26:37.676Z,100864.09
2022-10-13T19:29:08.285Z,100856.13
2022-10-13T19:31:36.429Z,100855.84
2022-10-13T19:34:04.859Z,100858.47
2022-10-13T19:36:33.897Z,100859.72
2022-10-13T19:39:02.521Z,100858.13
2022-10-13T19:41:31.928Z,100856.44
2022-10-13T19:44:01.264Z,100863.03
2022-10-13T19:46:28.929Z,100852.56
2022-10-13T19:48:56.599Z,100855.06
2022-10-13T19:51:24.145Z,100850.69
2022-10-13T19:53:51.739Z,100851.06
2022-10-13T19:56:21.572Z,100858.72
2022-10-13T19:58:49.195Z,100845.34
2022-10-13T20:01:19.882Z,100842.88
2022-10-13T20:03:48.114Z,100836.53
2022-10-13T20:06:16.377Z,100841.63
2022-10-13T20:08:44.894Z,100839.34
2022-10-13T20:11:14.104Z,100842.16
2022-10-13T20:13:44.113Z,100843.66
2022-10-13T20:16:13.993Z,100852.00
2022-10-13T20:18:43.499Z,100850.38
2022-10-13T20:21:13.078Z,100861.13
2022-10-13T20:23:42.040Z,100856.75
2022-10-13T20:26:11.852Z,100863.09
2022-10-13T20:28:42.938Z,100862.69
2022-10-13T20:31:11.434Z,100866.81
2022-10-13T20:33:39.079Z,100864.56
2022-10-13T20:36:10.205Z,100866.41
2022-10-13T20:38:37.834Z,100863.09
2022-10-13T20:41:06.542Z,100869.53
2022-10-13T20:43:34.440Z,100873.22
2022-10-13T20:46:02.342Z,100869.34
2022-10-13T20:48:51.069Z,100861.50
2022-10-13T20:51:23.048Z,100861.50
2022-10-13T20:53:50.554Z,100858.84
2022-10-13T20:56:20.138Z,100864.00
2022-10-13T20:58:48.371Z,100867.66
2022-10-13T21:01:16.161Z,100861.91
2022-10-13T21:03:44.736Z,100857.81
2022-10-13T21:06:13.822Z,100860.03
2022-10-13T21:08:45.338Z,100854.69
2022-10-13T21:11:15.041Z,100841.97
2022-10-13T21:13:43.519Z,100839.50
2022-10-13T21:16:13.118Z,100834.56
2022-10-13T21:18:40.982Z,100841.09
2022-10-13T21:21:09.855Z,100844.22
2022-10-13T21:23:37.668Z,100842.97
2022-10-13T21:26:08.090Z,100856.66
2022-10-13T21:28:38.279Z,100852.97
2022-10-13T21:31:07.276Z,100850.94
2022-10-13T21:33:35.798Z,100853.25
2022-10-13T21:36:07.237Z,100857.69
2022-10-13T21:38:34.845Z,100851.94
2022-10-13T21:41:06.613Z,100852.47
2022-10-13T21:43:34.289Z,100857.81
2022-10-13T21:46:09.142Z,100855.53
2022-10-13T21:48:36.809Z,100856.56
2022-10-13T21:51:12.145Z,100860.69
2022-10-13T21:53:39.640Z,100873.84
2022-10-13T21:56:09.648Z,100867.47
2022-10-13T21:58:37.204Z,100867.06
2022-10-13T22:01:05.482Z,100866.53
2022-10-13T22:03:33.560Z,100868.41
2022-10-13T22:06:05.300Z,100859.09
2022-10-13T22:08:38.545Z,100852.31
2022-10-13T22:11:09.447Z,100851.25
2022-10-13T22:13:37.766Z,100852.50
2022-10-13T22:16:06.484Z,100857.28
2022-10-13T22:18:34.038Z,100854.34
2022-10-13T22:21:02.905Z,100846.31
2022-10-13T22:23:30.864Z,100845.72
2022-10-13T22:25:58.870Z,100851.53
2022-10-13T22:28:27.863Z,100851.09
2022-10-13T22:30:55.505Z,100849.44
2022-10-13T22:33:23.049Z,100844.72
2022-10-13T22:35:50.833Z,100844.72
2022-10-13T22:38:18.368Z,100843.69
2022-10-13T22:40:45.955Z,100844.09
2022-10-13T22:43:13.484Z,100844.28
2022-10-13T22:45:50.766Z,100834.22
2022-10-13T22:48:18.324Z,100839.31
2022-10-13T22:50:46.006Z,100843.63
2022-10-13T22:53:13.645Z,100839.09
2022-10-13T22:55:41.430Z,100845.06
2022-10-13T22:58:09.496Z,100845.94
2022-10-13T23:00:37.735Z,100843.69
2022-10-13T23:03:07.322Z,100837.13
2022-10-13T23:05:35.046Z,100843.91
2022-10-13T23:08:02.720Z,100836.03
2022-10-13T23:10:30.268Z,100842.25
2022-10-13T23:12:57.801Z,100838.72
2022-10-13T23:15:25.421Z,100840.16
2022-10-13T23:17:53.002Z,100850.66
2022-10-13T23:20:21.832Z,100839.78
2022-10-13T23:22:49.405Z,100837.03
2022-10-13T23:25:16.940Z,100832.91
2022-10-13T23:27:44.485Z,100839.31
2022-10-13T23:30:13.509Z,100838.72
2022-10-13T23:32:41.060Z,100840.16
2022-10-13T23:35:09.250Z,100843.22
2022-10-13T23:37:38.198Z,100840.16
2022-10-13T23:40:06.839Z,100846.97
2022-10-13T23:42:34.443Z,100838.72
2022-10-13T23:45:01.985Z,100834.38
2022-10-13T23:47:29.557Z,100843.03
2022-10-13T23:49:57.096Z,100847.03
2022-10-13T23:52:24.650Z,100848.56
2022-10-13T23:54:53.615Z,100844.69
2022-10-13T23:57:21.274Z,100841.97
2022-10-13T23:59:49.023Z,100844.84
